createdAt,value
2023-03-22T00:00:23.974Z,1018.0
2023-03-22T00:15:23.584Z,1018.0
2023-03-22T00:30:24.092Z,1018.0
2023-03-22T00:45:24.110Z,1018.0
2023-03-22T01:00:24.318Z,1018.0
2023-03-22T01:15:24.312Z,1018.0
2023-03-22T01:30:33.327Z,1018.0
2023-03-22T01:45:33.433Z,1017.0
2023-03-22T02:00:33.479Z,1017.0
2023-03-22T02:15:23.610Z,1017.0
2023-03-22T02:30:23.673Z,1017.0
2023-03-22T02:45:22.993Z,1017.0
2023-03-22T03:00:22.999Z,1017.0
2023-03-22T03:15:23.729Z,1017.0
2023-03-22T03:30:23.809Z,1017.0
2023-03-22T03:45:23.669Z,1017.0
2023-03-22T04:00:23.852Z,1017.0
2023-03-22T04:15:24.001Z,1017.0
2023-03-22T04:30:23.785Z,1017.7
2023-03-22T04:45:24.032Z,1017.0
2023-03-22T05:00:26.745Z,1017.0
2023-03-22T05:15:24.088Z,1017.0
2023-03-22T05:30:24.172Z,1017.0
2023-03-22T05:45:24.068Z,1017.0
2023-03-22T06:00:24.222Z,1017.0
2023-03-22T06:15:24.194Z,1017.0
2023-03-22T06:30:23.778Z,1017.0
2023-03-22T06:45:33.365Z,1017.0
2023-03-22T07:00:33.411Z,1017.0
2023-03-22T07:15:23.488Z,1017.0
2023-03-22T07:30:23.643Z,1017.0
2023-03-22T07:45:23.894Z,1017.0
2023-03-22T08:00:23.710Z,1017.0
2023-03-22T08:15:23.738Z,1017.0
2023-03-22T08:30:23.643Z,1017.0
2023-03-22T08:45:23.696Z,1017.0
2023-03-22T09:00:23.814Z,1017.0
2023-03-22T09:15:23.913Z,1017.0
2023-03-22T09:30:24.011Z,1016.0
2023-03-22T09:45:23.961Z,1016.0
2023-03-22T10:00:23.927Z,1016.0
2023-03-22T10:15:24.356Z,1016.0
2023-03-22T10:30:24.090Z,1016.0
2023-03-22T10:45:24.145Z,1015.7
2023-03-22T11:00:24.594Z,1015.0
2023-03-22T11:15:23.695Z,1015.0
2023-03-22T11:30:23.592Z,1015.0
2023-03-22T11:45:23.782Z,1015.0
2023-03-22T12:00:23.776Z,1015.0
2023-03-22T12:15:24.030Z,1014.7
2023-03-22T12:30:23.864Z,1014.0
2023-03-22T12:45:23.902Z,1014.0
2023-03-22T13:00:23.828Z,1014.0
2023-03-22T13:15:28.487Z,1014.0
2023-03-22T13:15:40.428Z,1014.0
2023-03-22T13:15:40.834Z,1014.0
2023-03-22T13:15:42.204Z,1014.0
2023-03-22T13:30:23.979Z,1014.0
2023-03-22T13:45:24.240Z,1014.0
2023-03-22T14:00:24.037Z,1014.0
2023-03-22T14:15:24.014Z,1014.0
